createdAt,value
2022-09-07T00:00:16.785Z,91.5
2022-09-07T00:01:17.262Z,91.5
2022-09-07T00:02:16.825Z,91.5
2022-09-07T00:03:17.683Z,91.7
2022-09-07T00:04:17.457Z,91.7
2022-09-07T00:05:16.979Z,91.7
2022-09-07T00:06:16.448Z,91.7
2022-09-07T00:07:16.925Z,91.7
2022-09-07T00:08:17.665Z,91.7
2022-09-07T00:09:17.099Z,91.8
2022-09-07T00:10:16.531Z,91.8
2022-09-07T00:11:16.970Z,91.9
2022-09-07T00:12:16.811Z,92.0
2022-09-07T00:13:17.244Z,92.0
2022-09-07T00:14:16.699Z,92.0
2022-09-07T00:15:17.142Z,91.9
2022-09-07T00:16:16.755Z,92.0
2022-09-07T00:17:17.262Z,92.2
2022-09-07T00:18:16.720Z,92.3
2022-09-07T00:19:17.176Z,92.3
2022-09-07T00:20:16.665Z,92.2
2022-09-07T00:21:17.131Z,92.3
2022-09-07T00:22:16.765Z,92.3
2022-09-07T00:23:17.185Z,92.4
2022-09-07T00:24:16.625Z,92.5
2022-09-07T00:25:17.086Z,92.4
2022-09-07T00:26:16.503Z,92.2
2022-09-07T00:27:16.965Z,92.2
2022-09-07T00:28:17.409Z,92.2
2022-09-07T00:29:16.829Z,92.2
2022-09-07T00:30:17.258Z,92.2
2022-09-07T00:31:16.812Z,92.3
2022-09-07T00:32:16.524Z,92.2
2022-09-07T00:33:16.962Z,92.2
2022-09-07T00:34:17.442Z,92.2
2022-09-07T00:35:16.923Z,92.2
2022-09-07T00:36:17.397Z,92.2
2022-09-07T00:37:16.879Z,92.3
2022-09-07T00:38:17.332Z,92.2
2022-09-07T00:39:16.804Z,92.3
2022-09-07T00:40:17.219Z,92.3
2022-09-07T00:41:16.646Z,92.4
2022-09-07T00:42:16.996Z,92.3
2022-09-07T00:43:16.410Z,92.3
2022-09-07T00:44:16.843Z,92.3
2022-09-07T00:45:17.283Z,92.3
2022-09-07T00:46:16.894Z,92.2
2022-09-07T00:47:17.366Z,92.3
2022-09-07T00:48:16.808Z,92.3
2022-09-07T00:49:17.267Z,92.5
2022-09-07T00:50:16.727Z,92.6
2022-09-07T00:51:17.243Z,92.5
2022-09-07T00:52:16.732Z,92.5
2022-09-07T00:53:17.151Z,92.4
2022-09-07T00:54:16.576Z,92.4
2022-09-07T00:55:16.989Z,92.5
2022-09-07T00:56:16.444Z,92.4
2022-09-07T00:57:16.867Z,92.4
2022-09-07T00:58:17.317Z,92.4
2022-09-07T00:59:16.760Z,92.4
2022-09-07T01:00:17.216Z,92.5
2022-09-07T01:01:16.845Z,92.7
2022-09-07T01:02:17.803Z,92.6
2022-09-07T01:03:17.322Z,92.7
2022-09-07T01:04:16.770Z,92.8
2022-09-07T01:05:17.243Z,92.8
2022-09-07T01:06:16.705Z,92.9
2022-09-07T01:07:17.123Z,93.0
2022-09-07T01:08:16.563Z,93.0
2022-09-07T01:09:17.019Z,93.1
2022-09-07T01:10:16.432Z,93.1
2022-09-07T01:11:16.871Z,93.0
2022-09-07T01:12:16.670Z,93.0
2022-09-07T01:13:17.100Z,93.1
2022-09-07T01:14:16.568Z,92.9
2022-09-07T01:15:17.062Z,93.0
2022-09-07T01:16:16.800Z,92.9
2022-09-07T01:17:17.336Z,92.8
2022-09-07T01:18:16.787Z,92.8
2022-09-07T01:19:17.256Z,92.8
2022-09-07T01:20:16.734Z,92.9
2022-09-07T01:21:17.154Z,92.8
2022-09-07T01:22:17.023Z,92.9
2022-09-07T01:23:16.436Z,92.9
2022-09-07T01:24:16.872Z,92.9
2022-09-07T01:25:17.314Z,93.0
2022-09-07T01:26:16.746Z,93.0
2022-09-07T01:27:17.164Z,93.0
2022-09-07T01:28:16.631Z,93.1
2022-09-07T01:29:17.109Z,93.0
2022-09-07T01:30:16.569Z,93.0
2022-09-07T01:31:17.155Z,93.2
2022-09-07T01:32:16.820Z,93.2
2022-09-07T01:33:17.286Z,93.3
2022-09-07T01:34:16.727Z,93.3
2022-09-07T01:35:17.174Z,93.2
2022-09-07T01:36:16.595Z,93.3
2022-09-07T01:37:17.041Z,93.4
2022-09-07T01:38:16.454Z,93.4
2022-09-07T01:39:16.892Z,93.4
2022-09-07T01:40:17.321Z,93.5
2022-09-07T01:41:16.745Z,93.5
2022-09-07T01:42:16.744Z,93.4
2022-09-07T01:43:17.173Z,93.3
2022-09-07T01:44:16.640Z,93.4
2022-09-07T01:45:17.101Z,93.4
2022-09-07T01:46:16.716Z,93.4
2022-09-07T01:47:17.236Z,93.5
2022-09-07T01:48:16.688Z,93.6
2022-09-07T01:49:17.131Z,93.6
2022-09-07T01:50:16.574Z,93.3
2022-09-07T01:51:16.996Z,93.3
2022-09-07T01:52:16.804Z,93.4
2022-09-07T01:53:17.240Z,93.5
2022-09-07T01:54:16.699Z,93.6
2022-09-07T01:55:17.147Z,93.7
2022-09-07T01:56:16.579Z,93.8
2022-09-07T01:57:17.450Z,93.8
2022-09-07T01:58:16.990Z,93.8
2022-09-07T01:59:16.428Z,93.9
2022-09-07T02:00:16.879Z,94.1
2022-09-07T02:01:17.375Z,94.1
2022-09-07T02:02:17.402Z,94.2
2022-09-07T02:03:16.907Z,94.2
2022-09-07T02:04:17.371Z,94.3
2022-09-07T02:05:16.835Z,94.3
2022-09-07T02:06:17.248Z,94.5
2022-09-07T02:07:16.703Z,94.5
2022-09-07T02:08:17.122Z,94.5
2022-09-07T02:09:16.578Z,94.4
2022-09-07T02:10:16.989Z,94.7
2022-09-07T02:11:16.440Z,94.7
2022-09-07T02:12:17.350Z,94.5
2022-09-07T02:13:16.817Z,94.4
2022-09-07T02:14:17.313Z,94.4
2022-09-07T02:15:16.771Z,94.4
2022-09-07T02:16:17.388Z,94.4
2022-09-07T02:17:16.899Z,94.4
2022-09-07T02:18:17.376Z,94.4
2022-09-07T02:19:16.855Z,94.4
2022-09-07T02:20:17.289Z,94.5
2022-09-07T02:21:16.702Z,94.6
2022-09-07T02:22:16.703Z,94.6
2022-09-07T02:23:17.129Z,94.8
2022-09-07T02:24:16.573Z,94.8
2022-09-07T02:25:17.010Z,94.8
2022-09-07T02:26:16.516Z,94.8
2022-09-07T02:27:17.036Z,94.8
2022-09-07T02:28:16.477Z,94.9
2022-09-07T02:29:16.925Z,94.9
2022-09-07T02:30:17.387Z,95.0
2022-09-07T02:31:16.989Z,95.0
2022-09-07T02:32:17.168Z,95.0
2022-09-07T02:33:16.607Z,94.9
2022-09-07T02:34:17.075Z,94.9
2022-09-07T02:35:16.505Z,95.0
2022-09-07T02:36:16.922Z,95.0
2022-09-07T02:37:17.338Z,95.0
2022-09-07T02:38:16.771Z,95.1
2022-09-07T02:39:17.203Z,95.0
2022-09-07T02:40:16.635Z,95.0
2022-09-07T02:41:17.060Z,95.0
2022-09-07T02:42:17.006Z,95.0
2022-09-07T02:43:16.463Z,95.0
2022-09-07T02:44:16.927Z,95.0
2022-09-07T02:45:17.362Z,95.0
2022-09-07T02:46:16.917Z,95.0
2022-09-07T02:47:16.494Z,95.0
2022-09-07T02:48:16.949Z,95.0
2022-09-07T02:49:17.365Z,95.0
2022-09-07T02:50:16.780Z,95.0
2022-09-07T02:51:17.206Z,95.0
2022-09-07T02:52:16.793Z,95.0
2022-09-07T02:53:17.221Z,95.0
2022-09-07T02:54:16.655Z,95.0
2022-09-07T02:55:17.082Z,95.0
2022-09-07T02:56:16.490Z,95.1
2022-09-07T02:57:16.991Z,95.1
2022-09-07T02:58:16.445Z,95.1
2022-09-07T02:59:16.888Z,95.2
2022-09-07T03:00:17.368Z,95.1
2022-09-07T03:01:16.967Z,95.1
2022-09-07T03:02:17.151Z,95.1
2022-09-07T03:03:16.703Z,95.1
2022-09-07T03:04:17.124Z,95.1
2022-09-07T03:05:16.577Z,95.1
2022-09-07T03:06:16.987Z,95.1
2022-09-07T03:07:16.430Z,95.0
2022-09-07T03:08:16.883Z,95.0
2022-09-07T03:09:17.294Z,95.0
2022-09-07T03:10:16.723Z,95.0
2022-09-07T03:11:17.146Z,95.0
2022-09-07T03:12:16.851Z,94.8
2022-09-07T03:13:17.612Z,94.8
2022-09-07T03:14:17.066Z,94.8
2022-09-07T03:15:16.548Z,94.8
2022-09-07T03:16:17.184Z,95.0
2022-09-07T03:17:16.714Z,94.8
2022-09-07T03:18:17.159Z,94.8
2022-09-07T03:19:16.570Z,94.7
2022-09-07T03:20:17.029Z,94.7
2022-09-07T03:21:16.442Z,94.7
2022-09-07T03:22:17.341Z,94.5
2022-09-07T03:23:16.751Z,94.5
2022-09-07T03:24:17.170Z,94.5
2022-09-07T03:25:16.619Z,94.5
2022-09-07T03:26:17.054Z,94.5
2022-09-07T03:27:16.551Z,94.5
2022-09-07T03:28:17.000Z,94.6
2022-09-07T03:29:16.460Z,94.7
2022-09-07T03:30:16.950Z,94.8
2022-09-07T03:31:17.559Z,94.7
2022-09-07T03:32:16.760Z,94.8
2022-09-07T03:33:17.202Z,94.8
2022-09-07T03:34:16.647Z,94.8
2022-09-07T03:35:17.093Z,94.8
2022-09-07T03:36:16.545Z,94.8
2022-09-07T03:37:16.953Z,94.7
2022-09-07T03:38:17.394Z,94.7
2022-09-07T03:39:16.821Z,94.7
2022-09-07T03:40:17.255Z,94.8
2022-09-07T03:41:16.692Z,94.8
2022-09-07T03:42:16.799Z,95.2
2022-09-07T03:43:17.252Z,95.3
2022-09-07T03:44:16.699Z,95.3
2022-09-07T03:45:17.173Z,95.2
2022-09-07T03:46:16.782Z,95.2
2022-09-07T03:47:17.372Z,95.2
2022-09-07T03:48:16.792Z,95.2
2022-09-07T03:49:17.224Z,95.3
2022-09-07T03:50:16.678Z,95.3
2022-09-07T03:51:17.121Z,95.3
2022-09-07T03:52:16.782Z,95.3
2022-09-07T03:53:17.207Z,95.2
2022-09-07T03:54:16.660Z,95.1
2022-09-07T03:55:17.111Z,94.9
2022-09-07T03:56:16.570Z,94.7
2022-09-07T03:57:17.037Z,94.8
2022-09-07T03:58:16.771Z,94.9
2022-09-07T03:59:17.230Z,95.1
2022-09-07T04:00:16.715Z,95.2
2022-09-07T04:01:17.303Z,95.4
2022-09-07T04:02:16.881Z,95.8
2022-09-07T04:03:17.371Z,95.8
2022-09-07T04:04:16.809Z,95.5
2022-09-07T04:05:17.240Z,95.6
2022-09-07T04:06:16.693Z,95.6
2022-09-07T04:07:17.122Z,95.5
2022-09-07T04:08:16.563Z,95.4
2022-09-07T04:09:17.015Z,95.5
2022-09-07T04:10:16.460Z,95.7
2022-09-07T04:11:16.913Z,95.8
2022-09-07T04:12:16.590Z,95.8
2022-09-07T04:13:17.047Z,95.8
2022-09-07T04:14:16.511Z,95.9
2022-09-07T04:15:17.004Z,95.9
2022-09-07T04:16:16.694Z,96.1
2022-09-07T04:17:17.167Z,96.2
2022-09-07T04:18:16.856Z,96.2
2022-09-07T04:19:17.277Z,96.0
2022-09-07T04:20:16.691Z,96.1
2022-09-07T04:21:17.117Z,96.1
2022-09-07T04:22:16.629Z,96.2
2022-09-07T04:23:17.072Z,96.2
2022-09-07T04:24:16.593Z,96.3
2022-09-07T04:25:17.065Z,96.3
2022-09-07T04:26:16.568Z,96.5
2022-09-07T04:27:17.041Z,96.5
2022-09-07T04:28:16.500Z,96.5
2022-09-07T04:29:16.960Z,96.5
2022-09-07T04:30:17.416Z,96.5
2022-09-07T04:31:16.983Z,96.2
2022-09-07T04:32:16.389Z,96.2
2022-09-07T04:33:16.815Z,96.0
2022-09-07T04:34:17.249Z,96.0
2022-09-07T04:35:16.674Z,95.9
2022-09-07T04:36:17.101Z,95.9
2022-09-07T04:37:16.599Z,96.0
2022-09-07T04:38:17.086Z,96.0
2022-09-07T04:39:16.541Z,96.0
2022-09-07T04:40:16.980Z,96.1
2022-09-07T04:41:16.421Z,96.0
2022-09-07T04:42:17.169Z,95.9
2022-09-07T04:43:16.612Z,95.8
2022-09-07T04:44:17.482Z,95.8
2022-09-07T04:45:16.948Z,95.8
2022-09-07T04:46:17.561Z,95.8
2022-09-07T04:47:17.027Z,95.7
2022-09-07T04:48:16.448Z,95.8
2022-09-07T04:49:16.858Z,95.7
2022-09-07T04:50:17.306Z,95.5
2022-09-07T04:51:16.758Z,95.5
2022-09-07T04:52:17.016Z,95.5
2022-09-07T04:53:16.466Z,95.6
2022-09-07T04:54:16.936Z,95.5
2022-09-07T04:55:17.399Z,95.5
2022-09-07T04:56:17.355Z,95.5
2022-09-07T04:57:16.828Z,95.7
2022-09-07T04:58:17.479Z,95.7
2022-09-07T04:59:16.936Z,95.7
2022-09-07T05:00:17.386Z,95.6
2022-09-07T05:01:16.915Z,95.6
2022-09-07T05:02:16.633Z,95.5
2022-09-07T05:03:17.083Z,95.5
2022-09-07T05:04:16.506Z,95.5
2022-09-07T05:05:16.959Z,95.4
2022-09-07T05:06:17.371Z,95.3
2022-09-07T05:07:16.801Z,95.3
2022-09-07T05:08:17.284Z,95.2
2022-09-07T05:09:16.726Z,95.1
2022-09-07T05:10:17.163Z,95.0
2022-09-07T05:11:16.615Z,95.0
2022-09-07T05:12:16.655Z,94.8
2022-09-07T05:13:17.174Z,94.8
2022-09-07T05:14:16.636Z,94.8
2022-09-07T05:15:17.061Z,94.7
2022-09-07T05:16:16.565Z,94.6
2022-09-07T05:17:17.052Z,94.5
2022-09-07T05:18:16.462Z,94.4
2022-09-07T05:19:16.911Z,94.4
2022-09-07T05:20:20.545Z,94.1
2022-09-07T05:21:16.996Z,94.1
2022-09-07T05:22:17.302Z,94.0
2022-09-07T05:23:16.896Z,93.8
2022-09-07T05:24:17.384Z,93.7
2022-09-07T05:25:16.915Z,93.7
2022-09-07T05:26:17.387Z,93.5
2022-09-07T05:27:16.851Z,93.2
2022-09-07T05:28:19.711Z,93.0
2022-09-07T05:31:18.325Z,93.2
2022-09-07T05:32:16.690Z,93.1
2022-09-07T05:33:17.118Z,93.1
2022-09-07T05:35:16.930Z,93.0
2022-09-07T05:36:17.363Z,93.0
2022-09-07T05:37:16.813Z,92.9
2022-09-07T05:38:17.281Z,92.8
2022-09-07T05:39:16.754Z,92.8
2022-09-07T05:40:17.363Z,92.8
2022-09-07T05:41:16.857Z,92.7
2022-09-07T05:42:16.440Z,92.8
2022-09-07T05:43:16.901Z,93.2
2022-09-07T05:44:45.067Z,93.1
2022-09-07T05:45:16.823Z,93.4
2022-09-07T05:46:17.430Z,93.5
2022-09-07T05:47:16.915Z,93.5
2022-09-07T05:48:17.379Z,93.5
2022-09-07T05:49:16.816Z,93.3
2022-09-07T05:50:17.231Z,93.2
2022-09-07T05:51:16.685Z,93.1
2022-09-07T05:52:16.552Z,92.9
2022-09-07T05:53:17.012Z,92.8
2022-09-07T05:54:16.483Z,93.1
2022-09-07T05:55:30.203Z,93.2
2022-09-07T05:56:17.026Z,93.2
2022-09-07T05:57:16.490Z,93.2
2022-09-07T05:58:16.950Z,93.2
2022-09-07T05:59:17.398Z,93.1
2022-09-07T06:00:16.811Z,93.0
2022-09-07T06:01:17.290Z,93.0
2022-09-07T06:02:17.197Z,93.0
2022-09-07T06:03:16.958Z,92.8
2022-09-07T06:04:16.527Z,92.7
2022-09-07T06:05:16.978Z,92.5
2022-09-07T06:06:16.425Z,92.3
2022-09-07T06:07:23.756Z,92.2
2022-09-07T06:08:17.302Z,92.2
2022-09-07T06:09:16.756Z,92.2
2022-09-07T06:10:44.765Z,92.2
2022-09-07T06:11:16.684Z,92.2
2022-09-07T06:12:16.939Z,92.2
2022-09-07T06:13:17.368Z,92.0
2022-09-07T06:14:16.791Z,92.0
2022-09-07T06:15:17.210Z,92.2
2022-09-07T06:16:16.821Z,91.8
2022-09-07T06:17:17.325Z,91.7
2022-09-07T06:18:16.767Z,91.7
2022-09-07T06:19:17.257Z,91.7
2022-09-07T06:20:16.720Z,91.7
2022-09-07T06:21:17.152Z,91.5
2022-09-07T06:22:16.647Z,91.5
2022-09-07T06:23:17.117Z,91.6
2022-09-07T06:24:16.575Z,91.5
2022-09-07T06:25:17.073Z,91.6
2022-09-07T06:26:16.581Z,91.3
2022-09-07T06:27:17.320Z,91.3
2022-09-07T06:28:16.731Z,91.3
2022-09-07T06:29:17.142Z,91.0
2022-09-07T06:30:16.575Z,91.1
2022-09-07T06:31:17.168Z,90.8
2022-09-07T06:32:44.573Z,90.8
2022-09-07T06:33:22.162Z,90.4
2022-09-07T06:34:16.662Z,90.6
2022-09-07T06:35:17.126Z,90.2
2022-09-07T06:36:16.600Z,89.8
2022-09-07T06:37:17.081Z,89.7
2022-09-07T06:38:16.520Z,89.8
2022-09-07T06:39:16.991Z,89.7
2022-09-07T06:40:16.482Z,89.6
2022-09-07T06:41:58.915Z,89.4
2022-09-07T06:42:16.409Z,89.0
2022-09-07T06:43:16.832Z,89.1
2022-09-07T06:44:17.267Z,89.1
2022-09-07T06:45:16.706Z,89.1
2022-09-07T06:47:16.497Z,89.2
2022-09-07T06:48:17.021Z,89.2
2022-09-07T06:49:16.481Z,89.1
2022-09-07T06:50:16.971Z,89.3
2022-09-07T06:51:17.415Z,88.8
2022-09-07T06:52:16.572Z,88.8
2022-09-07T06:53:36.790Z,88.6
2022-09-07T06:54:58.983Z,88.7
2022-09-07T06:55:17.395Z,88.8
2022-09-07T06:56:16.829Z,88.8
2022-09-07T06:57:17.247Z,88.7
2022-09-07T06:58:16.695Z,88.8
2022-09-07T06:59:17.139Z,89.0
2022-09-07T07:00:16.558Z,89.0
2022-09-07T07:01:17.069Z,89.2
2022-09-07T07:02:17.360Z,89.1
2022-09-07T07:03:16.941Z,89.0
2022-09-07T07:04:16.457Z,88.7
2022-09-07T07:05:16.900Z,88.7
2022-09-07T07:06:17.370Z,88.4
2022-09-07T07:07:16.827Z,88.5
2022-09-07T07:08:17.340Z,88.2
2022-09-07T07:09:16.785Z,88.3
2022-09-07T07:10:24.449Z,88.2
2022-09-07T07:11:17.246Z,88.5
2022-09-07T07:14:16.802Z,87.8
2022-09-07T07:15:17.239Z,88.1
2022-09-07T07:16:16.821Z,88.3
2022-09-07T07:17:17.278Z,88.2
2022-09-07T07:18:21.512Z,88.2
2022-09-07T07:19:16.991Z,88.0
2022-09-07T07:20:16.439Z,88.0
2022-09-07T07:21:16.889Z,87.7
2022-09-07T07:22:45.948Z,87.9
2022-09-07T07:23:16.967Z,87.8
2022-09-07T07:24:17.438Z,87.6
2022-09-07T07:25:16.859Z,87.5
2022-09-07T07:26:17.270Z,87.5
2022-09-07T07:27:16.691Z,87.3
2022-09-07T07:29:19.144Z,86.7
2022-09-07T07:30:16.585Z,86.6
2022-09-07T07:31:17.055Z,86.9
2022-09-07T07:32:16.818Z,87.0
2022-09-07T07:33:17.315Z,87.0
2022-09-07T07:34:16.863Z,87.0
2022-09-07T07:35:17.339Z,86.9
2022-09-07T07:36:16.807Z,87.0
2022-09-07T07:37:17.253Z,86.6
2022-09-07T07:40:20.529Z,84.2
2022-09-07T07:41:56.171Z,83.9
2022-09-07T07:42:17.238Z,83.0
2022-09-07T07:43:16.693Z,82.9
2022-09-07T07:44:17.101Z,82.1
2022-09-07T07:45:55.336Z,81.8
2022-09-07T07:46:17.105Z,80.8
2022-09-07T07:47:16.641Z,80.0
2022-09-07T07:48:17.100Z,79.9
2022-09-07T07:49:16.582Z,80.1
2022-09-07T07:50:30.455Z,79.0
2022-09-07T07:51:16.900Z,78.3
2022-09-07T07:53:39.515Z,77.8
2022-09-07T07:53:42.796Z,77.2
2022-09-07T07:54:17.276Z,76.7
2022-09-07T07:55:44.248Z,76.3
2022-09-07T07:56:17.131Z,76.3
2022-09-07T07:57:16.577Z,76.1
2022-09-07T07:58:16.994Z,75.1
2022-09-07T07:59:16.451Z,75.2
2022-09-07T08:00:43.958Z,75.7
2022-09-07T08:01:17.549Z,75.2
2022-09-07T08:02:17.011Z,75.4
2022-09-07T08:03:16.596Z,74.7
2022-09-07T08:04:17.058Z,74.2
2022-09-07T08:05:16.534Z,74.5
2022-09-07T08:06:16.993Z,74.4
2022-09-07T08:07:16.447Z,74.2
2022-09-07T08:08:16.877Z,74.0
2022-09-07T08:09:17.306Z,74.0
2022-09-07T08:10:16.734Z,74.5
2022-09-07T08:11:17.144Z,74.2
2022-09-07T08:12:17.232Z,74.1
2022-09-07T08:13:16.666Z,74.0
2022-09-07T08:14:17.081Z,73.8
2022-09-07T08:15:16.537Z,73.4
2022-09-07T08:16:17.110Z,73.3
2022-09-07T08:17:16.589Z,72.8
2022-09-07T08:18:17.109Z,72.6
2022-09-07T08:19:16.545Z,72.8
2022-09-07T08:20:16.995Z,73.0
2022-09-07T08:21:16.462Z,72.5
2022-09-07T08:22:17.014Z,72.6
2022-09-07T08:23:16.438Z,72.3
2022-09-07T08:24:16.853Z,71.7
2022-09-07T08:25:17.267Z,71.8
2022-09-07T08:26:16.696Z,71.5
2022-09-07T08:27:17.127Z,71.2
2022-09-07T08:28:16.539Z,71.2
2022-09-07T08:29:17.012Z,71.2
2022-09-07T08:30:16.480Z,71.3
2022-09-07T08:31:17.166Z,71.2
2022-09-07T08:32:16.509Z,71.5
2022-09-07T08:33:16.968Z,71.4
2022-09-07T08:34:17.437Z,70.3
2022-09-07T08:35:16.905Z,70.5
2022-09-07T08:36:17.395Z,70.2
2022-09-07T08:37:16.859Z,69.8
2022-09-07T08:38:21.221Z,68.9
2022-09-07T08:39:16.689Z,68.5
2022-09-07T08:40:17.316Z,68.5
2022-09-07T08:41:16.804Z,68.7
2022-09-07T08:42:16.427Z,67.9
2022-09-07T08:43:16.906Z,67.4
2022-09-07T08:44:17.340Z,67.2
2022-09-07T08:45:16.754Z,66.2
2022-09-07T08:46:17.310Z,66.2
2022-09-07T08:47:16.780Z,65.8
2022-09-07T08:48:17.224Z,66.4
2022-09-07T08:49:16.742Z,67.2
2022-09-07T08:50:17.228Z,66.9
2022-09-07T08:51:23.722Z,66.5
2022-09-07T08:52:17.416Z,65.8
2022-09-07T08:53:16.879Z,65.4
2022-09-07T08:54:17.296Z,65.3
2022-09-07T08:55:16.730Z,65.3
2022-09-07T08:56:17.141Z,65.3
2022-09-07T08:57:23.489Z,65.3
2022-09-07T08:58:48.016Z,65.1
2022-09-07T08:59:17.346Z,65.0
2022-09-07T09:00:16.966Z,64.8
2022-09-07T09:01:31.899Z,64.8
2022-09-07T09:02:30.647Z,64.9
2022-09-07T09:03:30.065Z,64.7
2022-09-07T09:04:19.312Z,64.2
2022-09-07T09:05:19.073Z,64.2
2022-09-07T09:06:17.243Z,64.4
2022-09-07T09:07:16.945Z,64.7
2022-09-07T09:08:17.490Z,64.8
2022-09-07T09:09:16.916Z,64.8
2022-09-07T09:10:17.334Z,64.8
2022-09-07T09:11:16.801Z,63.9
2022-09-07T09:12:16.974Z,63.8
2022-09-07T09:13:16.398Z,63.6
2022-09-07T09:14:16.958Z,62.9
2022-09-07T09:15:17.408Z,62.8
2022-09-07T09:16:16.991Z,63.2
2022-09-07T09:17:16.461Z,63.9
2022-09-07T09:18:16.963Z,63.8
2022-09-07T09:19:17.429Z,63.6
2022-09-07T09:20:16.891Z,63.8
2022-09-07T09:21:17.379Z,63.2
2022-09-07T09:22:16.866Z,63.5
2022-09-07T09:23:17.330Z,63.4
2022-09-07T09:24:16.769Z,63.1
2022-09-07T09:25:17.209Z,63.0
2022-09-07T09:26:16.647Z,62.5
2022-09-07T09:27:17.100Z,62.4
2022-09-07T09:28:16.537Z,62.0
2022-09-07T09:29:16.975Z,61.9
2022-09-07T09:30:16.438Z,61.5
2022-09-07T09:31:17.038Z,61.1
2022-09-07T09:32:16.776Z,61.1
2022-09-07T09:33:17.455Z,61.4
2022-09-07T09:34:16.924Z,61.7
2022-09-07T09:35:17.394Z,61.5
2022-09-07T09:36:16.839Z,61.9
2022-09-07T09:37:17.421Z,62.1
2022-09-07T09:38:16.880Z,61.9
2022-09-07T09:39:17.301Z,61.4
2022-09-07T09:40:16.819Z,61.6
2022-09-07T09:41:17.278Z,61.3
2022-09-07T09:42:16.837Z,61.6
2022-09-07T09:43:17.275Z,61.7
2022-09-07T09:44:16.696Z,60.8
2022-09-07T09:45:17.107Z,59.6
2022-09-07T09:46:16.601Z,59.7
2022-09-07T09:47:30.681Z,60.4
2022-09-07T09:48:17.314Z,60.6
2022-09-07T09:49:16.795Z,60.4
2022-09-07T09:52:31.215Z,61.2
2022-09-07T09:53:17.043Z,61.2
2022-09-07T09:54:16.459Z,61.0
2022-09-07T09:55:35.247Z,61.0
2022-09-07T09:56:17.275Z,60.5
2022-09-07T09:57:16.688Z,60.8
2022-09-07T09:59:57.056Z,59.0
2022-09-07T10:00:30.192Z,59.2
2022-09-07T10:01:27.039Z,59.5
2022-09-07T10:03:56.348Z,59.0
2022-09-07T10:04:21.417Z,59.0
2022-09-07T10:05:17.000Z,57.8
2022-09-07T10:06:16.477Z,58.2
2022-09-07T10:07:16.938Z,58.5
2022-09-07T10:08:17.382Z,58.9
2022-09-07T10:09:16.834Z,58.6
2022-09-07T10:10:17.274Z,59.8
2022-09-07T10:11:16.726Z,60.6
2022-09-07T10:12:16.512Z,60.9
2022-09-07T10:13:16.935Z,60.8
2022-09-07T10:14:17.348Z,60.9
2022-09-07T10:15:16.790Z,61.2
2022-09-07T10:16:17.445Z,60.9
2022-09-07T10:17:16.948Z,60.6
2022-09-07T10:18:17.444Z,60.6
2022-09-07T10:19:16.921Z,60.5
2022-09-07T10:20:17.389Z,60.6
2022-09-07T10:21:16.868Z,60.6
2022-09-07T10:22:16.498Z,61.6
2022-09-07T10:23:16.918Z,61.9
2022-09-07T10:24:17.362Z,60.6
2022-09-07T10:25:16.783Z,60.8
2022-09-07T10:26:17.224Z,61.0
2022-09-07T10:27:16.655Z,60.4
2022-09-07T10:28:17.071Z,59.8
2022-09-07T10:29:17.370Z,59.6
2022-09-07T10:30:16.871Z,59.9
2022-09-07T10:31:17.494Z,60.2
2022-09-07T10:32:17.029Z,60.8
2022-09-07T10:33:16.500Z,60.7
2022-09-07T10:34:27.900Z,61.2
2022-09-07T10:35:17.342Z,61.5
2022-09-07T10:36:16.824Z,61.6
2022-09-07T10:37:17.243Z,61.7
2022-09-07T10:38:16.909Z,61.0
2022-09-07T10:39:17.329Z,60.4
2022-09-07T10:40:16.891Z,60.5
2022-09-07T10:41:17.355Z,60.5
2022-09-07T10:42:16.623Z,61.2
2022-09-07T10:43:23.694Z,60.8
2022-09-07T10:44:17.133Z,60.4
2022-09-07T10:45:16.574Z,60.2
2022-09-07T10:46:57.411Z,59.9
2022-09-07T10:47:17.098Z,59.4
2022-09-07T10:48:16.598Z,60.0
2022-09-07T10:49:17.052Z,61.0
2022-09-07T10:50:24.099Z,60.6
2022-09-07T10:51:16.633Z,61.5
2022-09-07T10:52:16.460Z,61.8
2022-09-07T10:53:40.542Z,61.8
2022-09-07T10:54:30.254Z,61.9
2022-09-07T10:55:16.938Z,61.4
2022-09-07T10:56:17.400Z,61.8
2022-09-07T10:57:16.828Z,62.2
2022-09-07T10:58:17.305Z,61.4
2022-09-07T10:59:16.726Z,61.2
2022-09-07T11:00:17.174Z,60.8
2022-09-07T11:01:16.791Z,60.8
2022-09-07T11:02:16.828Z,60.6
2022-09-07T11:03:29.413Z,60.3
2022-09-07T11:04:16.926Z,60.4
2022-09-07T11:05:17.419Z,60.2
2022-09-07T11:06:16.889Z,60.5
2022-09-07T11:07:17.330Z,60.6
2022-09-07T11:08:16.773Z,60.9
2022-09-07T11:09:19.246Z,60.9
2022-09-07T11:10:17.017Z,60.8
2022-09-07T11:11:16.451Z,60.8
2022-09-07T11:12:17.024Z,61.0
2022-09-07T11:13:16.460Z,61.2
2022-09-07T11:14:16.924Z,61.3
2022-09-07T11:15:17.410Z,61.1
2022-09-07T11:16:51.442Z,61.0
2022-09-07T11:17:17.298Z,60.7
2022-09-07T11:18:16.764Z,59.3
2022-09-07T11:19:37.603Z,58.7
2022-09-07T11:20:17.375Z,57.9
2022-09-07T11:21:56.651Z,58.2
2022-09-07T11:22:17.244Z,58.4
2022-09-07T11:23:16.671Z,58.5
2022-09-07T11:24:17.140Z,58.5
2022-09-07T11:25:29.960Z,58.4
2022-09-07T11:26:16.440Z,58.0
2022-09-07T11:27:16.853Z,57.6
2022-09-07T11:28:17.299Z,57.6
2022-09-07T11:29:29.926Z,57.0
2022-09-07T11:30:16.452Z,56.5
2022-09-07T11:31:17.128Z,56.0
2022-09-07T11:32:17.334Z,56.0
2022-09-07T11:33:16.792Z,56.3
2022-09-07T11:34:25.105Z,57.2
2022-09-07T11:35:16.691Z,57.9
2022-09-07T11:36:17.133Z,58.4
2022-09-07T11:37:16.554Z,58.5
2022-09-07T11:38:16.995Z,59.4
2022-09-07T11:39:16.443Z,59.6
2022-09-07T11:40:17.054Z,59.8
2022-09-07T11:41:16.522Z,60.0
2022-09-07T11:42:44.340Z,59.9
2022-09-07T11:43:16.759Z,60.1
2022-09-07T11:44:17.237Z,60.2
2022-09-07T11:45:16.727Z,60.3
2022-09-07T11:46:17.349Z,60.5
2022-09-07T11:47:16.901Z,60.0
2022-09-07T11:48:19.885Z,60.0
2022-09-07T11:49:17.377Z,59.9
2022-09-07T11:50:16.878Z,60.5
2022-09-07T11:51:17.335Z,60.6
2022-09-07T11:52:16.659Z,61.0
2022-09-07T11:53:17.080Z,61.4
2022-09-07T11:54:16.484Z,61.3
2022-09-07T11:55:16.910Z,61.5
2022-09-07T11:56:17.324Z,61.8
2022-09-07T11:57:16.758Z,61.8
2022-09-07T11:58:17.192Z,62.0
2022-09-07T11:59:16.665Z,62.1
2022-09-07T12:00:17.119Z,61.8
2022-09-07T12:01:16.560Z,61.6
2022-09-07T12:02:16.916Z,61.5
2022-09-07T12:03:22.997Z,61.6
2022-09-07T12:04:16.803Z,61.0
2022-09-07T12:05:17.290Z,61.1
2022-09-07T12:06:16.710Z,61.2
2022-09-07T12:07:17.146Z,61.5
2022-09-07T12:08:16.584Z,61.1
2022-09-07T12:09:17.014Z,61.0
2022-09-07T12:10:16.453Z,60.9
2022-09-07T12:11:23.136Z,61.3
2022-09-07T12:12:16.537Z,61.5
2022-09-07T12:13:17.041Z,61.3
2022-09-07T12:14:16.486Z,61.3
2022-09-07T12:15:16.947Z,61.2
2022-09-07T12:16:17.536Z,61.0
2022-09-07T12:17:17.040Z,61.1
2022-09-07T12:18:16.475Z,61.4
2022-09-07T12:19:16.929Z,61.3
2022-09-07T12:20:17.384Z,61.5
2022-09-07T12:21:16.816Z,61.8
2022-09-07T12:22:17.067Z,61.8
2022-09-07T12:23:16.490Z,61.8
2022-09-07T12:24:16.904Z,62.1
2022-09-07T12:25:17.346Z,62.0
2022-09-07T12:26:16.787Z,62.2
2022-09-07T12:27:17.225Z,62.2
2022-09-07T12:28:22.201Z,62.0
2022-09-07T12:29:16.702Z,62.0
2022-09-07T12:30:17.150Z,61.8
2022-09-07T12:31:16.697Z,61.8
2022-09-07T12:32:55.212Z,62.1
2022-09-07T12:33:17.004Z,62.8
2022-09-07T12:34:16.454Z,62.4
2022-09-07T12:35:16.905Z,62.2
2022-09-07T12:36:17.335Z,61.3
2022-09-07T12:37:16.764Z,61.5
2022-09-07T12:38:17.183Z,61.3
2022-09-07T12:39:16.619Z,60.8
2022-09-07T12:40:17.271Z,61.1
2022-09-07T12:41:16.787Z,60.8
2022-09-07T12:42:32.811Z,60.7
2022-09-07T12:43:16.514Z,60.6
2022-09-07T12:44:16.963Z,60.7
2022-09-07T12:45:17.397Z,60.6
2022-09-07T12:46:16.955Z,59.9
2022-09-07T12:47:16.452Z,59.9
2022-09-07T12:48:16.917Z,60.0
2022-09-07T12:49:17.373Z,60.0
2022-09-07T12:50:16.809Z,60.0
2022-09-07T12:51:59.725Z,59.8
2022-09-07T12:52:16.713Z,60.0
2022-09-07T12:53:17.126Z,59.9
2022-09-07T12:54:16.558Z,60.5
2022-09-07T12:55:29.257Z,60.3
2022-09-07T12:56:17.896Z,60.5
2022-09-07T12:57:29.793Z,60.0
2022-09-07T12:58:17.375Z,60.2
2022-09-07T12:59:20.457Z,60.3
2022-09-07T13:00:16.913Z,60.6
2022-09-07T13:01:17.604Z,60.9
2022-09-07T13:02:18.494Z,61.1
2022-09-07T13:03:51.288Z,60.9
2022-09-07T13:04:16.435Z,61.5
2022-09-07T13:05:16.876Z,61.0
2022-09-07T13:06:17.796Z,61.1
2022-09-07T13:07:16.456Z,60.5
2022-09-07T13:08:16.881Z,59.8
2022-09-07T13:09:17.312Z,60.0
2022-09-07T13:10:16.735Z,60.2
2022-09-07T13:11:17.153Z,60.2
2022-09-07T13:12:53.604Z,60.3
2022-09-07T13:13:17.860Z,60.3
2022-09-07T13:14:17.718Z,60.0
2022-09-07T13:15:24.364Z,60.0
2022-09-07T13:16:18.069Z,60.2
2022-09-07T13:17:17.122Z,60.2
2022-09-07T13:18:16.712Z,59.9
2022-09-07T13:19:17.151Z,60.1
2022-09-07T13:20:16.582Z,59.6
2022-09-07T13:21:17.012Z,60.0
2022-09-07T13:22:16.811Z,60.0
2022-09-07T13:23:17.248Z,60.0
2022-09-07T13:24:46.229Z,59.5
2022-09-07T13:25:17.166Z,59.2
2022-09-07T13:26:16.629Z,59.1
2022-09-07T13:27:17.114Z,58.5
2022-09-07T13:28:16.612Z,58.1
2022-09-07T13:29:17.108Z,57.0
2022-09-07T13:30:16.887Z,56.8
2022-09-07T13:31:17.493Z,56.2